Time;durP1;ratioP1;P1;durP2;ratioP2;P2;SDS_P1;SDS_P2;PMS_P1;PMS_P2;Temp;Humidity;BMP_temperature;BMP_pressure;BME280_temperature;BME280_humidity;BME280_pressure;Samples;Min_cycle;Max_cycle;Signal;HPM_P1;HPM_P2
2022/05/17 00:02:22;;;;;;;10.98;5.30;;;17.80;99.90;;;;;;5079122;28;20044;-64
2022/05/17 00:04:48;;;;;;;13.18;5.35;;;17.80;99.90;;;;;;5083199;28;20383;-65
2022/05/17 00:07:13;;;;;;;16.55;5.47;;;17.70;99.90;;;;;;5083649;28;20040;-64
2022/05/17 00:09:39;;;;;;;12.23;5.07;;;17.70;99.90;;;;;;5076029;28;20085;-65
2022/05/17 00:12:05;;;;;;;15.00;5.32;;;17.60;99.90;;;;;;5080386;28;20250;-66
2022/05/17 00:14:31;;;;;;;16.27;5.57;;;17.60;99.90;;;;;;5081568;28;20170;-65
2022/05/17 00:16:57;;;;;;;11.05;5.25;;;17.50;99.90;;;;;;5080456;28;20051;-65
2022/05/17 00:19:23;;;;;;;11.55;5.60;;;17.50;99.90;;;;;;5074287;28;20039;-65
2022/05/17 00:21:49;;;;;;;13.88;5.38;;;17.50;99.90;;;;;;5081852;28;20098;-65
2022/05/17 00:24:17;;;;;;;12.15;5.38;;;17.40;99.90;;;;;;5077410;28;20086;-66
2022/05/17 00:26:43;;;;;;;13.82;4.78;;;17.40;99.90;;;;;;5079690;28;20039;-66
2022/05/17 00:29:09;;;;;;;13.90;5.18;;;17.40;99.90;;;;;;5079521;28;20046;-64
2022/05/17 00:31:35;;;;;;;16.70;6.20;;;17.40;99.90;;;;;;5084914;28;20067;-65
2022/05/17 00:34:03;;;;;;;11.73;5.32;;;17.30;99.90;;;;;;5082422;28;20036;-65
2022/05/17 00:36:29;;;;;;;10.52;5.15;;;17.30;99.90;;;;;;5083486;28;20100;-65
2022/05/17 00:38:55;;;;;;;13.88;5.32;;;17.30;99.90;;;;;;5083301;28;20147;-66
2022/05/17 00:41:21;;;;;;;14.32;6.53;;;17.30;99.90;;;;;;5083918;28;20640;-65
2022/05/17 00:46:45;;;;;;;10.47;5.40;;;17.30;99.90;;;;;;5078077;28;20051;-66
2022/05/17 00:49:15;;;;;;;11.43;5.25;;;17.20;99.90;;;;;;5079834;28;20395;-65
2022/05/17 00:51:41;;;;;;;11.27;5.47;;;17.10;99.90;;;;;;5079929;28;20112;-65
2022/05/17 00:54:14;;;;;;;14.20;5.38;;;17.10;99.90;;;;;;5084690;28;20067;-64
2022/05/17 00:56:54;;;;;;;13.05;5.53;;;17.10;99.90;;;;;;5085271;28;20040;-66
2022/05/17 00:59:20;;;;;;;13.43;5.57;;;17.10;99.90;;;;;;5083620;28;20099;-65
2022/05/17 01:01:46;;;;;;;12.77;5.88;;;17.00;99.90;;;;;;5076712;28;20043;-66
2022/05/17 01:04:18;;;;;;;14.55;5.80;;;17.00;99.90;;;;;;5083184;28;20036;-65
2022/05/17 01:06:47;;;;;;;15.18;6.10;;;16.90;99.90;;;;;;5081399;28;20121;-65
2022/05/17 01:09:13;;;;;;;14.23;5.78;;;16.80;99.90;;;;;;5079274;28;20124;-66
2022/05/17 01:11:40;;;;;;;11.57;5.18;;;16.80;99.90;;;;;;5078541;28;20429;-66
2022/05/17 01:16:52;;;;;;;;;;;16.80;99.90;;;;;;5082737;28;20264;-66
2022/05/17 01:19:17;;;;;;;13.77;5.57;;;16.80;99.90;;;;;;5084096;28;19920;-64
2022/05/17 01:21:43;;;;;;;11.27;5.13;;;16.70;99.90;;;;;;5074457;28;20819;-64
2022/05/17 01:24:09;;;;;;;14.60;5.35;;;16.80;99.90;;;;;;5079987;28;20049;-66
2022/05/17 01:26:38;;;;;;;15.15;5.80;;;16.80;99.90;;;;;;5077401;28;20047;-65
2022/05/17 01:29:06;;;;;;;11.18;5.10;;;16.70;99.90;;;;;;5078114;28;20036;-65
2022/05/17 01:31:35;;;;;;;10.13;5.63;;;16.70;99.90;;;;;;5076824;28;20041;-65
2022/05/17 01:34:01;;;;;;;14.05;6.50;;;16.70;99.90;;;;;;5085785;28;20044;-65
2022/05/17 01:36:26;;;;;;;12.18;5.55;;;16.60;99.90;;;;;;5079314;28;20059;-65
2022/05/17 01:38:52;;;;;;;14.73;5.95;;;16.60;99.90;;;;;;5076293;28;20059;-66
2022/05/17 01:41:19;;;;;;;12.38;5.63;;;16.60;99.90;;;;;;5081527;28;20036;-66
2022/05/17 01:43:44;;;;;;;13.50;5.72;;;16.50;99.90;;;;;;5083719;28;20052;-66
2022/05/17 01:46:10;;;;;;;14.02;5.80;;;16.50;99.90;;;;;;5082368;28;20032;-64
2022/05/17 01:48:39;;;;;;;13.77;5.93;;;16.50;99.90;;;;;;5078428;28;20042;-65
2022/05/17 01:51:08;;;;;;;12.90;5.70;;;16.50;99.90;;;;;;5076632;28;20133;-65
2022/05/17 01:53:34;;;;;;;14.57;5.80;;;16.50;99.90;;;;;;5071275;28;20512;-64
2022/05/17 01:56:08;;;;;;;9.20;5.00;;;16.50;99.90;;;;;;5076759;28;20131;-65
2022/05/17 01:58:34;;;;;;;12.65;6.00;;;16.40;99.90;;;;;;5081542;28;20040;-65
2022/05/17 02:01:01;;;;;;;12.23;5.25;;;16.40;99.90;;;;;;5074953;28;20138;-66
2022/05/17 02:03:26;;;;;;;15.48;6.10;;;16.40;99.90;;;;;;5077918;28;20056;-65
2022/05/17 02:05:52;;;;;;;13.85;5.93;;;16.30;99.90;;;;;;5076702;28;20036;-65
2022/05/17 02:08:18;;;;;;;12.60;5.95;;;16.30;99.90;;;;;;5085423;28;20063;-64
2022/05/17 02:10:44;;;;;;;12.38;5.88;;;16.30;99.90;;;;;;5085477;28;20447;-64
2022/05/17 02:13:10;;;;;;;14.80;6.43;;;16.20;99.90;;;;;;5080352;28;20044;-65
2022/05/17 02:15:37;;;;;;;12.93;5.85;;;16.20;99.90;;;;;;5084663;28;20162;-65
2022/05/17 02:18:02;;;;;;;12.07;5.60;;;16.20;99.90;;;;;;5081491;28;21885;-66
2022/05/17 02:20:28;;;;;;;12.48;6.32;;;16.20;99.90;;;;;;5080346;28;20083;-64
2022/05/17 02:22:53;;;;;;;12.25;5.40;;;16.10;99.90;;;;;;5086254;28;20394;-63
2022/05/17 02:25:19;;;;;;;13.68;6.30;;;16.10;99.90;;;;;;5082973;28;20101;-64
2022/05/17 02:27:45;;;;;;;12.45;6.10;;;16.10;99.90;;;;;;5082914;28;20260;-64
2022/05/17 02:30:12;;;;;;;11.90;5.80;;;16.00;99.90;;;;;;5084259;28;20067;-63
2022/05/17 02:32:38;;;;;;;12.52;5.72;;;16.00;99.90;;;;;;5086908;28;20040;-63
2022/05/17 02:35:05;;;;;;;11.43;5.75;;;16.00;99.90;;;;;;5080953;28;20152;-64
2022/05/17 02:37:31;;;;;;;11.77;5.93;;;16.00;99.90;;;;;;5081677;28;20130;-63
2022/05/17 02:39:56;;;;;;;11.80;6.13;;;16.00;99.90;;;;;;5078410;28;20517;-64
2022/05/17 02:42:22;;;;;;;12.98;6.18;;;16.00;99.90;;;;;;5082156;28;20477;-63
2022/05/17 02:44:48;;;;;;;14.15;6.28;;;15.90;99.90;;;;;;5084131;28;20063;-64
2022/05/17 02:47:13;;;;;;;12.70;6.00;;;15.90;99.90;;;;;;5079911;28;20036;-63
2022/05/17 02:49:40;;;;;;;13.70;6.45;;;15.90;99.90;;;;;;5087914;28;20048;-64
2022/05/17 02:52:07;;;;;;;16.35;6.65;;;15.90;99.90;;;;;;5080113;28;20047;-63
2022/05/17 02:54:33;;;;;;;12.20;6.05;;;15.80;99.90;;;;;;5088499;28;20044;-65
2022/05/17 02:56:58;;;;;;;10.18;5.47;;;15.80;99.90;;;;;;5085268;28;20059;-63
2022/05/17 02:59:24;;;;;;;12.18;6.03;;;15.80;99.90;;;;;;5088008;28;20044;-64
2022/05/17 03:01:50;;;;;;;9.30;5.65;;;15.70;99.90;;;;;;5085707;28;20761;-64
2022/05/17 03:04:15;;;;;;;13.50;6.07;;;15.70;99.90;;;;;;5083292;28;20044;-63
2022/05/17 03:06:43;;;;;;;14.10;6.40;;;15.70;99.90;;;;;;5084502;28;20133;-63
2022/05/17 03:09:09;;;;;;;13.30;7.15;;;15.70;99.90;;;;;;5083079;28;20047;-65
2022/05/17 03:11:36;;;;;;;13.10;5.97;;;15.70;99.90;;;;;;5076844;28;20044;-65
2022/05/17 03:14:02;;;;;;;13.95;6.18;;;15.70;99.90;;;;;;5082472;28;20071;-66
2022/05/17 03:16:31;;;;;;;13.43;6.00;;;15.60;99.90;;;;;;5088627;28;20162;-65
2022/05/17 03:18:58;;;;;;;11.50;6.05;;;15.60;99.90;;;;;;5081029;28;20128;-63
2022/05/17 03:21:24;;;;;;;15.15;6.53;;;15.60;99.90;;;;;;5075862;28;20125;-65
2022/05/17 03:23:49;;;;;;;14.02;6.15;;;15.60;99.90;;;;;;5085739;28;20069;-64
2022/05/17 03:26:15;;;;;;;11.27;6.32;;;15.60;99.90;;;;;;5083680;28;20435;-65
2022/05/17 03:28:41;;;;;;;11.73;5.97;;;15.60;99.90;;;;;;5084464;28;20044;-64
2022/05/17 03:31:08;;;;;;;10.95;6.03;;;15.50;99.90;;;;;;5085453;28;20059;-64
2022/05/17 03:33:34;;;;;;;11.90;6.15;;;15.50;99.90;;;;;;5083676;28;20036;-63
2022/05/17 03:35:59;;;;;;;12.02;5.97;;;15.50;99.90;;;;;;5080429;28;20123;-65
2022/05/17 03:38:25;;;;;;;14.07;6.32;;;15.50;99.90;;;;;;5074754;28;20044;-66
2022/05/17 03:40:52;;;;;;;13.57;6.07;;;15.40;99.90;;;;;;5083505;28;20052;-63
2022/05/17 03:43:19;;;;;;;13.73;6.38;;;15.40;99.90;;;;;;5085540;28;20042;-67
2022/05/17 03:45:45;;;;;;;14.23;6.80;;;15.40;99.90;;;;;;5087490;28;20484;-65
2022/05/17 03:48:11;;;;;;;12.50;6.38;;;15.40;99.90;;;;;;5081233;28;20176;-63
2022/05/17 03:50:37;;;;;;;12.20;6.40;;;15.40;99.90;;;;;;5083124;28;20040;-64
2022/05/17 03:53:03;;;;;;;11.60;6.13;;;15.40;99.90;;;;;;5082145;28;20047;-66
2022/05/17 03:55:29;;;;;;;14.57;6.32;;;15.40;99.90;;;;;;5081083;28;20382;-64
2022/05/17 03:57:55;;;;;;;12.70;6.07;;;15.40;99.90;;;;;;5086174;28;20093;-65
2022/05/17 04:00:21;;;;;;;12.52;6.30;;;15.40;99.90;;;;;;5080366;28;20148;-64
2022/05/17 04:02:47;;;;;;;13.45;6.07;;;15.40;99.90;;;;;;5081033;28;20150;-65
2022/05/17 04:05:13;;;;;;;13.13;5.85;;;15.50;99.90;;;;;;5076201;28;20088;-63
2022/05/17 04:07:39;;;;;;;11.98;6.35;;;15.50;99.90;;;;;;5080798;28;20040;-64
2022/05/17 04:10:07;;;;;;;12.63;6.47;;;15.50;99.90;;;;;;5081087;28;20063;-64
2022/05/17 04:12:33;;;;;;;11.30;6.13;;;15.50;99.90;;;;;;5084209;28;20047;-63
2022/05/17 04:14:58;;;;;;;12.80;6.55;;;15.50;99.90;;;;;;5081688;28;20528;-64
2022/05/17 04:17:24;;;;;;;10.52;6.03;;;15.60;99.90;;;;;;5076716;28;20063;-63
2022/05/17 04:19:50;;;;;;;11.30;6.18;;;15.70;99.90;;;;;;5080367;28;20065;-64
2022/05/17 04:22:16;;;;;;;10.23;5.80;;;15.70;99.90;;;;;;5080909;28;20040;-64
2022/05/17 04:24:41;;;;;;;13.20;6.03;;;15.80;99.90;;;;;;5081369;28;20446;-64
2022/05/17 04:27:08;;;;;;;10.77;6.00;;;15.80;99.90;;;;;;5077507;28;20036;-64
2022/05/17 04:29:34;;;;;;;12.75;5.65;;;15.90;99.90;;;;;;5080504;28;20044;-65
2022/05/17 04:31:59;;;;;;;13.77;6.35;;;15.90;99.90;;;;;;5074905;28;20047;-64
2022/05/17 04:34:25;;;;;;;12.10;6.60;;;16.10;99.90;;;;;;5084575;28;20149;-67
2022/05/17 04:36:50;;;;;;;12.85;5.97;;;16.10;99.90;;;;;;5076807;28;20048;-66
2022/05/17 04:39:16;;;;;;;11.70;6.43;;;16.20;99.90;;;;;;5075646;28;20123;-67
2022/05/17 04:41:43;;;;;;;12.82;6.00;;;16.30;99.90;;;;;;5072536;28;20136;-67
2022/05/17 04:44:09;;;;;;;9.27;5.70;;;16.40;99.90;;;;;;5080957;28;20080;-65
2022/05/17 04:46:34;;;;;;;14.90;6.10;;;16.40;99.90;;;;;;5077726;28;20149;-65
2022/05/17 04:49:00;;;;;;;17.48;6.90;;;16.50;99.90;;;;;;5071974;28;20040;-67
2022/05/17 04:51:27;;;;;;;12.80;6.38;;;16.60;99.90;;;;;;5078092;28;20065;-65
2022/05/17 04:53:52;;;;;;;15.40;6.90;;;16.70;99.90;;;;;;5079760;28;20442;-65
2022/05/17 04:56:19;;;;;;;12.32;5.90;;;16.80;99.90;;;;;;5088296;28;20036;-65
2022/05/17 04:58:44;;;;;;;12.75;6.03;;;16.90;99.90;;;;;;5088898;28;20113;-65
2022/05/17 05:01:10;;;;;;;15.52;6.18;;;17.10;99.90;;;;;;5084621;28;20048;-64
2022/05/17 05:03:36;;;;;;;16.20;6.30;;;17.10;99.90;;;;;;5082472;28;20054;-63
2022/05/17 05:06:04;;;;;;;13.30;5.90;;;17.20;99.90;;;;;;5077514;28;20112;-67
2022/05/17 05:08:30;;;;;;;11.85;5.82;;;17.30;99.90;;;;;;5081234;28;20383;-64
2022/05/17 05:10:56;;;;;;;13.73;5.95;;;17.40;99.90;;;;;;5081888;28;20174;-64
2022/05/17 05:13:23;;;;;;;11.95;5.18;;;17.50;99.90;;;;;;5079547;28;20048;-64
2022/05/17 05:15:48;;;;;;;13.73;5.97;;;17.40;99.90;;;;;;5078286;28;20068;-66
2022/05/17 05:18:14;;;;;;;10.82;5.40;;;17.40;99.90;;;;;;5076883;28;20444;-64
2022/05/17 05:20:41;;;;;;;15.20;5.38;;;17.50;99.90;;;;;;5085534;28;20036;-64
2022/05/17 05:23:08;;;;;;;14.32;5.43;;;17.50;99.90;;;;;;5079961;28;20060;-64
2022/05/17 05:25:34;;;;;;;13.13;5.90;;;17.40;99.90;;;;;;5076957;28;20097;-64
2022/05/17 05:28:01;;;;;;;12.57;6.05;;;17.30;99.90;;;;;;5080087;28;20140;-62
2022/05/17 05:30:28;;;;;;;11.07;5.47;;;17.40;99.90;;;;;;5074606;28;20051;-63
2022/05/17 05:32:54;;;;;;;10.98;5.43;;;17.40;99.90;;;;;;5078444;28;20435;-63
2022/05/17 05:35:24;;;;;;;12.88;5.82;;;17.40;99.90;;;;;;5077491;28;20093;-64
2022/05/17 05:37:51;;;;;;;13.07;5.72;;;17.40;99.90;;;;;;5076797;28;20090;-65
2022/05/17 05:40:17;;;;;;;15.05;5.38;;;17.40;99.90;;;;;;5078464;28;20134;-64
2022/05/17 05:42:42;;;;;;;10.30;5.50;;;17.50;99.90;;;;;;5081280;28;20045;-63
2022/05/17 05:45:09;;;;;;;14.80;6.03;;;17.50;99.90;;;;;;5082830;28;20147;-63
2022/05/17 05:47:35;;;;;;;11.20;5.50;;;17.50;99.90;;;;;;5082303;28;20058;-66
2022/05/17 05:50:00;;;;;;;12.48;5.13;;;17.60;99.90;;;;;;5084009;28;20663;-65
2022/05/17 05:52:26;;;;;;;11.38;5.43;;;17.60;99.90;;;;;;5085909;28;20120;-65
2022/05/17 05:54:52;;;;;;;11.15;5.10;;;17.70;99.90;;;;;;5079891;28;20140;-65
2022/05/17 05:57:17;;;;;;;13.82;6.03;;;17.80;99.90;;;;;;5079200;28;20625;-66
2022/05/17 05:59:43;;;;;;;9.32;4.90;;;17.80;99.90;;;;;;5082503;28;20109;-66
2022/05/17 06:02:10;;;;;;;10.85;4.68;;;17.90;99.90;;;;;;5078339;28;20097;-65
2022/05/17 06:04:36;;;;;;;9.48;5.22;;;17.90;99.90;;;;;;5078438;28;20078;-65
2022/05/17 06:07:03;;;;;;;8.98;4.63;;;17.90;99.90;;;;;;5084235;28;20388;-66
2022/05/17 06:09:28;;;;;;;11.93;5.60;;;18.00;99.90;;;;;;5092066;28;20127;-64
2022/05/17 06:11:54;;;;;;;11.07;5.20;;;18.00;99.90;;;;;;5089720;28;20185;-65
2022/05/17 06:14:20;;;;;;;14.00;5.80;;;18.00;99.90;;;;;;5090461;28;20068;-65
2022/05/17 06:16:47;;;;;;;14.10;5.70;;;18.00;99.90;;;;;;5086738;28;20398;-64
2022/05/17 06:19:12;;;;;;;10.85;4.82;;;18.00;99.90;;;;;;5087069;28;20063;-64
2022/05/17 06:21:38;;;;;;;15.30;5.65;;;18.00;99.90;;;;;;5086468;28;20504;-64
2022/05/17 06:24:04;;;;;;;11.07;5.63;;;18.10;99.90;;;;;;5090256;28;20048;-64
2022/05/17 06:26:30;;;;;;;14.43;5.75;;;18.20;99.90;;;;;;5089457;28;20055;-64
2022/05/17 06:28:56;;;;;;;13.30;5.32;;;18.20;99.90;;;;;;5085852;28;20047;-64
2022/05/17 06:31:22;;;;;;;14.05;5.95;;;18.30;99.90;;;;;;5089777;28;20047;-65
2022/05/17 06:33:47;;;;;;;12.77;5.50;;;18.40;99.90;;;;;;5090457;28;20036;-63
2022/05/17 06:36:13;;;;;;;10.75;5.35;;;18.40;99.90;;;;;;5089005;28;20044;-63
2022/05/17 06:38:38;;;;;;;12.82;5.72;;;18.60;99.90;;;;;;5089373;28;20044;-63
2022/05/17 06:41:04;;;;;;;12.07;5.00;;;18.50;99.90;;;;;;5086794;28;20044;-63
2022/05/17 06:43:34;;;;;;;10.70;4.63;;;18.70;99.90;;;;;;5091517;28;20067;-63
2022/05/17 06:46:03;;;;;;;11.40;4.70;;;18.80;99.90;;;;;;5081622;28;20062;-64
2022/05/17 06:48:30;;;;;;;11.05;4.18;;;19.00;99.90;;;;;;5088054;28;20585;-63
2022/05/17 06:51:04;;;;;;;12.80;4.45;;;19.10;99.90;;;;;;5089149;28;20109;-63
2022/05/17 06:53:30;;;;;;;;;;;19.10;99.90;;;;;;5082547;28;20541;-64
2022/05/17 06:55:56;;;;;;;11.38;4.63;;;19.10;99.90;;;;;;5101637;28;20003;-63
2022/05/17 06:58:21;;;;;;;11.48;3.80;;;19.20;99.90;;;;;;5080342;28;20052;-63
2022/05/17 07:00:47;;;;;;;14.38;3.65;;;19.40;99.90;;;;;;5087816;28;20080;-63
2022/05/17 07:03:14;;;;;;;10.88;3.85;;;19.40;99.90;;;;;;5089694;28;20096;-63
2022/05/17 07:05:40;;;;;;;10.98;3.58;;;19.50;99.90;;;;;;5085814;28;20052;-64
2022/05/17 07:08:05;;;;;;;12.75;3.92;;;19.60;99.90;;;;;;5073809;28;20379;-64
2022/05/17 07:13:16;;;;;;;11.45;3.67;;;19.60;99.90;;;;;;5089341;28;20508;-64
2022/05/17 07:15:45;;;;;;;9.65;3.83;;;19.80;99.90;;;;;;5086967;28;20509;-64
2022/05/17 07:18:12;;;;;;;12.93;4.18;;;19.70;99.90;;;;;;5087069;28;20032;-64
2022/05/17 07:20:39;;;;;;;10.77;3.80;;;19.90;99.90;;;;;;5087940;28;20040;-64
2022/05/17 07:23:04;;;;;;;11.38;3.97;;;20.10;99.90;;;;;;5088000;28;20089;-63
2022/05/17 07:25:31;;;;;;;13.63;3.67;;;20.00;99.90;;;;;;5088326;28;20047;-65
2022/05/17 07:27:57;;;;;;;12.25;4.35;;;20.20;99.90;;;;;;5088447;28;20422;-62
2022/05/17 07:30:23;;;;;;;9.38;3.42;;;20.30;99.90;;;;;;5088721;28;20051;-63
2022/05/17 07:32:48;;;;;;;13.55;4.15;;;20.30;99.90;;;;;;5087280;28;20101;-63
2022/05/17 07:35:14;;;;;;;12.27;3.75;;;20.30;99.90;;;;;;5087628;28;20076;-63
2022/05/17 07:37:40;;;;;;;11.73;3.78;;;20.40;99.90;;;;;;5088855;28;20044;-65
2022/05/17 07:40:06;;;;;;;13.05;3.75;;;20.50;99.90;;;;;;5088846;28;20044;-63
2022/05/17 07:42:32;;;;;;;12.75;3.58;;;20.60;99.90;;;;;;5089404;28;20429;-63
2022/05/17 07:44:58;;;;;;;10.38;3.33;;;20.70;99.90;;;;;;5074652;28;20163;-65
2022/05/17 07:47:23;;;;;;;12.40;3.38;;;20.80;99.90;;;;;;5087588;28;20453;-63
2022/05/17 07:49:49;;;;;;;15.45;4.22;;;21.00;99.90;;;;;;5088395;28;20044;-63
2022/05/17 07:52:15;;;;;;;13.10;3.40;;;21.20;99.90;;;;;;5086483;28;20048;-64
2022/05/17 07:54:41;;;;;;;13.13;4.32;;;21.50;99.90;;;;;;5086336;28;20032;-63
2022/05/17 07:57:07;;;;;;;12.23;3.88;;;21.70;99.90;;;;;;5088251;28;20131;-64
2022/05/17 07:59:33;;;;;;;9.45;4.13;;;21.70;99.90;;;;;;5087730;28;20040;-62
2022/05/17 08:01:58;;;;;;;13.18;3.65;;;22.00;99.90;;;;;;5088970;28;20083;-63
2022/05/17 08:04:24;;;;;;;9.30;3.50;;;22.20;99.90;;;;;;5072744;28;20083;-63
2022/05/17 08:06:50;;;;;;;11.35;3.50;;;22.30;99.90;;;;;;5085734;28;20055;-63
2022/05/17 08:09:16;;;;;;;11.85;3.50;;;22.30;99.90;;;;;;5088083;28;20051;-64
2022/05/17 08:11:42;;;;;;;10.63;3.50;;;22.30;99.90;;;;;;5088100;28;20091;-66
2022/05/17 08:14:08;;;;;;;9.90;3.38;;;22.30;99.90;;;;;;5086567;28;20084;-64
2022/05/17 08:16:34;;;;;;;13.10;3.65;;;22.10;99.90;;;;;;5089165;28;20044;-64
2022/05/17 08:18:59;;;;;;;11.45;3.60;;;22.00;99.90;;;;;;5088733;28;20063;-64
2022/05/17 08:21:25;;;;;;;12.55;2.85;;;22.00;99.90;;;;;;5087518;28;20102;-65
2022/05/17 08:23:50;;;;;;;11.85;3.33;;;21.80;99.90;;;;;;5076030;28;20083;-65
2022/05/17 08:29:05;;;;;;;7.80;2.47;;;21.70;99.90;;;;;;5073685;28;20516;-64
2022/05/17 08:31:31;;;;;;;13.80;2.90;;;21.60;99.90;;;;;;5087007;28;20182;-65
2022/05/17 08:33:56;;;;;;;9.45;2.40;;;21.50;99.90;;;;;;5087161;28;20040;-64
2022/05/17 08:36:22;;;;;;;13.45;2.40;;;21.40;99.90;;;;;;5084608;28;20058;-64
2022/05/17 08:38:50;;;;;;;9.40;2.80;;;21.40;99.30;;;;;;5087758;28;20059;-64
2022/05/17 08:41:37;;;;;;;12.35;2.78;;;21.40;99.50;;;;;;5083055;28;20055;-65
2022/05/17 08:44:13;;;;;;;12.02;2.80;;;21.50;99.90;;;;;;5083748;28;20468;-63
2022/05/17 08:46:59;;;;;;;9.80;2.30;;;21.50;99.50;;;;;;5086959;28;20075;-64
2022/05/17 08:49:31;;;;;;;10.85;3.08;;;21.70;99.40;;;;;;5086497;28;20117;-65
2022/05/17 08:52:12;;;;;;;11.90;2.72;;;21.70;98.90;;;;;;5087812;28;20119;-64
2022/05/17 08:54:41;;;;;;;12.40;2.80;;;21.90;97.80;;;;;;5086993;28;20074;-62
2022/05/17 08:57:14;;;;;;;9.20;2.45;;;21.90;97.90;;;;;;5086986;28;20119;-62
2022/05/17 08:59:41;;;;;;;9.10;2.28;;;22.00;98.20;;;;;;5085095;28;20048;-62
2022/05/17 09:02:18;;;;;;;8.27;2.00;;;22.10;97.60;;;;;;5087589;28;20036;-63
2022/05/17 09:05:03;;;;;;;11.05;2.67;;;22.20;95.90;;;;;;5086489;28;20618;-65
2022/05/17 09:07:34;;;;;;;;;;;22.30;95.00;;;;;;5088236;28;20503;-63
2022/05/17 09:10:22;;;;;;;10.70;2.25;;;22.10;96.10;;;;;;5083082;28;19920;-62
2022/05/17 09:13:08;;;;;;;12.20;2.30;;;22.10;95.10;;;;;;5075466;28;20054;-65
2022/05/17 09:15:33;;;;;;;10.90;2.42;;;22.10;94.90;;;;;;5079529;28;20049;-64
2022/05/17 09:18:05;;;;;;;10.95;2.47;;;22.00;94.90;;;;;;5074592;28;20047;-65
2022/05/17 09:20:35;;;;;;;13.20;2.42;;;21.90;95.60;;;;;;5081808;28;20094;-65
2022/05/17 09:23:01;;;;;;;9.90;2.40;;;21.90;96.00;;;;;;5080634;28;20154;-63
2022/05/17 09:25:45;;;;;;;9.95;2.45;;;22.00;96.00;;;;;;5084712;28;20169;-65
2022/05/17 09:28:12;;;;;;;10.70;2.20;;;22.10;95.50;;;;;;5076640;28;20063;-65
2022/05/17 09:30:39;;;;;;;9.65;2.50;;;22.10;95.60;;;;;;5090424;28;20079;-67
2022/05/17 09:33:04;;;;;;;13.63;2.85;;;22.20;94.80;;;;;;5085577;28;20123;-65
2022/05/17 09:35:32;;;;;;;10.63;2.30;;;22.20;94.60;;;;;;5086510;28;20128;-65
2022/05/17 09:37:59;;;;;;;10.48;2.50;;;22.20;94.40;;;;;;5088230;28;20143;-64
2022/05/17 09:40:28;;;;;;;13.75;2.70;;;22.20;94.60;;;;;;5084787;28;20044;-65
2022/05/17 09:42:57;;;;;;;9.80;2.40;;;22.10;94.90;;;;;;5076739;28;20131;-63
2022/05/17 09:45:46;;;;;;;8.98;2.13;;;22.20;95.20;;;;;;5087144;28;20072;-64
2022/05/17 09:48:24;;;;;;;11.75;2.58;;;22.20;95.10;;;;;;5080605;28;20450;-64
2022/05/17 09:54:00;;;;;;;11.63;2.67;;;22.40;94.30;;;;;;5086957;28;20060;-64
2022/05/17 09:56:27;;;;;;;11.73;2.67;;;22.50;94.60;;;;;;5088428;28;20048;-65
2022/05/17 09:58:52;;;;;;;10.80;2.22;;;22.60;95.20;;;;;;5088849;28;20052;-64
2022/05/17 10:01:35;;;;;;;13.98;2.92;;;22.70;95.00;;;;;;5070379;28;20383;-64
2022/05/17 10:04:17;;;;;;;8.23;2.30;;;22.60;94.80;;;;;;5070135;28;20067;-64
2022/05/17 10:06:46;;;;;;;9.60;2.47;;;22.60;94.50;;;;;;5070097;28;20894;-67
2022/05/17 10:09:27;;;;;;;12.35;2.50;;;22.60;95.10;;;;;;5075987;28;20440;-66
2022/05/17 10:11:58;;;;;;;8.75;2.63;;;22.60;95.00;;;;;;5087790;28;20126;-66
2022/05/17 10:14:36;;;;;;;12.52;3.13;;;22.60;95.40;;;;;;5081938;28;20408;-65
2022/05/17 10:17:13;;;;;;;9.95;2.78;;;22.70;96.40;;;;;;5079798;28;20478;-67
2022/05/17 10:19:50;;;;;;;11.85;3.38;;;22.90;96.80;;;;;;5086677;28;20059;-66
2022/05/17 10:22:54;;;;;;;10.10;3.10;;;23.00;96.80;;;;;;5083494;28;20319;-66
2022/05/17 10:25:41;;;;;;;12.07;3.10;;;23.20;96.60;;;;;;5067872;28;20044;-66
2022/05/17 10:28:17;;;;;;;10.48;3.10;;;23.40;96.60;;;;;;5071643;28;20105;-66
2022/05/17 10:30:54;;;;;;;13.32;3.33;;;23.60;96.30;;;;;;5083196;28;20040;-66
2022/05/17 10:33:27;;;;;;;10.73;3.30;;;23.50;95.90;;;;;;5079751;28;20051;-66
2022/05/17 10:36:04;;;;;;;8.90;3.22;;;23.70;95.80;;;;;;5091056;28;20047;-65
2022/05/17 10:38:34;;;;;;;10.27;3.15;;;23.70;95.70;;;;;;5070423;28;20052;-64
2022/05/17 10:41:05;;;;;;;11.90;3.05;;;23.90;95.30;;;;;;5081255;28;20154;-66
2022/05/17 10:43:38;;;;;;;13.30;3.42;;;24.00;95.00;;;;;;5088576;28;20093;-66
2022/05/17 10:46:04;;;;;;;12.93;3.70;;;23.80;94.00;;;;;;5091837;28;20040;-65
2022/05/17 10:49:16;;;;;;;10.13;3.28;;;23.70;94.20;;;;;;5092159;28;20094;-65
2022/05/17 10:51:50;;;;;;;10.90;3.40;;;23.70;94.00;;;;;;5047784;28;20076;-65
2022/05/17 10:54:30;;;;;;;11.95;3.03;;;23.70;93.90;;;;;;5085347;28;20098;-66
2022/05/17 10:57:21;;;;;;;8.57;2.90;;;23.70;93.50;;;;;;5078903;28;20374;-66
2022/05/17 11:00:18;;;;;;;10.68;3.42;;;23.70;93.30;;;;;;5091672;28;20478;-66
2022/05/17 11:02:55;;;;;;;9.35;3.08;;;23.80;93.00;;;;;;5090681;28;20119;-65
2022/05/17 11:05:36;;;;;;;9.35;2.75;;;23.90;92.50;;;;;;5083432;28;20042;-65
2022/05/17 11:08:20;;;;;;;10.85;2.78;;;23.90;92.10;;;;;;5083913;28;20048;-67
2022/05/17 11:11:03;;;;;;;11.93;3.63;;;24.00;91.90;;;;;;5089429;28;20056;-66
2022/05/17 11:13:34;;;;;;;9.60;3.55;;;24.00;91.80;;;;;;5088405;28;20036;-65
2022/05/17 11:16:14;;;;;;;12.70;4.00;;;24.00;91.10;;;;;;5089141;28;20112;-66
2022/05/17 11:18:55;;;;;;;11.15;3.70;;;24.10;91.10;;;;;;5086029;28;20041;-66
2022/05/17 11:21:29;;;;;;;10.20;3.65;;;24.00;91.20;;;;;;5080232;28;20044;-66
2022/05/17 11:24:01;;;;;;;9.07;2.97;;;24.10;90.90;;;;;;5071913;28;20135;-67
2022/05/17 11:26:41;;;;;;;12.32;3.70;;;24.00;90.80;;;;;;5069513;28;20040;-66
2022/05/17 11:29:33;;;;;;;13.40;4.00;;;23.90;90.10;;;;;;5083235;28;20067;-65
2022/05/17 11:32:14;;;;;;;9.23;3.53;;;23.60;90.90;;;;;;5082593;28;20192;-66
2022/05/17 11:34:45;;;;;;;10.55;3.58;;;23.60;91.60;;;;;;5089410;28;20127;-66
2022/05/17 11:37:44;;;;;;;12.02;4.10;;;23.50;92.50;;;;;;5088371;28;20067;-67
2022/05/17 11:40:11;;;;;;;10.93;3.78;;;23.50;93.20;;;;;;5057959;28;20237;-66
2022/05/17 11:43:40;;;;;;;10.75;3.65;;;23.40;93.60;;;;;;5089176;28;20442;-65
2022/05/17 11:45:49;;;;;;;11.05;3.53;;;23.40;94.00;;;;;;5072855;28;20115;-65
2022/05/17 11:48:18;;;;;;;12.68;3.90;;;23.30;94.40;;;;;;5089103;28;20059;-67
2022/05/17 11:50:58;;;;;;;10.05;3.45;;;23.20;94.50;;;;;;5087164;28;20123;-65
2022/05/17 11:53:24;;;;;;;9.20;3.40;;;23.20;94.70;;;;;;5087793;28;20036;-66
2022/05/17 11:56:24;;;;;;;12.25;3.78;;;23.30;94.70;;;;;;5084947;28;20032;-66
2022/05/17 11:59:09;;;;;;;9.93;3.67;;;23.40;95.00;;;;;;5089435;28;20052;-67
2022/05/17 12:01:35;;;;;;;11.05;3.65;;;23.60;94.50;;;;;;5088086;28;20052;-67
2022/05/17 12:04:22;;;;;;;11.15;3.88;;;23.60;93.90;;;;;;5088502;28;20375;-66
2022/05/17 12:06:48;;;;;;;12.57;4.05;;;23.60;93.60;;;;;;5087874;28;20496;-67
2022/05/17 12:09:22;;;;;;;8.93;3.10;;;23.50;93.90;;;;;;5088558;28;20047;-68
2022/05/17 12:11:56;;;;;;;;;;;23.50;94.30;;;;;;5087264;28;20063;-68
2022/05/17 12:14:29;;;;;;;10.07;3.60;;;23.50;94.90;;;;;;5086528;28;19954;-67
2022/05/17 12:17:13;;;;;;;11.82;3.42;;;23.50;94.50;;;;;;5088509;28;20051;-67
2022/05/17 12:20:10;;;;;;;10.18;3.15;;;23.60;94.50;;;;;;5087575;28;20056;-66
2022/05/17 12:22:53;;;;;;;9.50;3.40;;;23.60;94.50;;;;;;5067953;28;20048;-68
2022/05/17 12:25:37;;;;;;;10.10;3.15;;;23.60;94.80;;;;;;5066770;28;20044;-68
2022/05/17 12:28:08;;;;;;;8.20;3.20;;;23.70;94.30;;;;;;5067888;28;20063;-67
2022/05/17 12:33:21;;;;;;;;;;;24.00;93.20;;;;;;5087672;28;20131;-66
2022/05/17 12:35:48;;;;;;;8.80;2.20;;;24.00;93.70;;;;;;5088419;28;20342;-67
2022/05/17 12:44:07;;;;;;;6.70;2.40;;;24.30;91.80;;;;;;5082746;28;20529;-66
2022/05/17 12:46:36;;;;;;;10.15;2.60;;;24.50;91.20;;;;;;5085028;28;20044;-68
2022/05/17 12:49:15;;;;;;;8.40;2.45;;;24.70;91.10;;;;;;5080391;28;20079;-68
2022/05/17 12:51:41;;;;;;;9.75;2.40;;;24.50;90.00;;;;;;5084094;28;20113;-66
2022/05/17 12:54:13;;;;;;;8.70;2.63;;;24.80;90.30;;;;;;5085491;28;20048;-65
2022/05/17 12:56:43;;;;;;;7.32;2.47;;;24.80;89.80;;;;;;5086702;28;20050;-66
2022/05/17 12:59:10;;;;;;;7.70;2.90;;;24.90;88.70;;;;;;5089110;28;20059;-64
2022/05/17 13:01:42;;;;;;;7.18;3.10;;;24.80;88.70;;;;;;5086988;28;20123;-65
2022/05/17 13:04:14;;;;;;;9.07;2.67;;;24.80;89.60;;;;;;5088145;28;20048;-64
2022/05/17 13:06:49;;;;;;;10.65;3.42;;;24.90;90.10;;;;;;5081211;28;20044;-64
2022/05/17 13:09:19;;;;;;;;;;;25.00;89.40;;;;;;5081402;28;20371;-65
2022/05/17 13:11:45;;;;;;;7.88;2.33;;;24.80;90.60;;;;;;5087491;28;20027;-65
2022/05/17 13:14:31;;;;;;;9.32;3.00;;;25.00;90.20;;;;;;5085395;28;20462;-64
2022/05/17 13:17:10;;;;;;;7.28;3.05;;;25.00;89.40;;;;;;5080838;28;20048;-65